Orbital elements of HINODE
| Launched | 21 September 2006 |
| Flight ended | – |
| Launch site | Uchinoura Space Center (Fomerly Kagoshima Space Center-University of Tokyo, Japan) |
| Owner | Japan |
| NORAD ID | 29479 |
| Alternative names |
SOLAR-B |
| Date fetched |
Epoch osculation |
Inc. [°] |
Ecc. | RA asc node [hr] |
Arg Peri. [°] |
Mean anom [°] |
Mean motion [rev/day] |
Abs. mag |
| Date fetched |
Epoch osculation |
Inc. [°] |
Ecc. | RA asc node [hr] |
Arg Peri. [°] |
Mean anom [°] |
Mean motion [rev/day] |
Abs. mag |
| 2026 May 08 17:57 | 2026 May 08 01:19:04 | 98.0568 | 0.00187 | 9.6532 | 58.3890 | 301.9139 | 14.68565 | 6.743 |
| 2026 May 07 17:58 | 2026 May 07 07:19:49 | 98.0569 | 0.00187 | 9.6039 | 60.6009 | 301.9139 | 14.68565 | 6.743 |
| 2026 May 06 17:57 | 2026 May 06 06:48:06 | 98.0570 | 0.00188 | 9.5368 | 63.6216 | 301.9139 | 14.68565 | 6.743 |
| 2026 May 05 17:57 | 2026 May 05 11:10:44 | 98.0569 | 0.00188 | 9.4831 | 66.0159 | 301.9139 | 14.68565 | 6.743 |
| 2026 May 04 17:57 | 2026 May 04 07:22:48 | 98.0570 | 0.00188 | 9.4070 | 69.3967 | 301.9139 | 14.68565 | 6.743 |
| 2026 May 03 17:57 | 2026 May 03 06:51:05 | 98.0571 | 0.00189 | 9.3399 | 72.3994 | 301.9139 | 14.68565 | 6.743 |
| 2026 May 02 17:57 | 2026 May 02 07:57:29 | 98.0572 | 0.00189 | 9.2772 | 75.1666 | 301.9139 | 14.68565 | 6.743 |
| 2026 May 01 17:56 | 2026 May 01 12:20:07 | 98.0573 | 0.00189 | 9.2235 | 77.5695 | 301.9139 | 14.68565 | 6.743 |
| 2026 Apr 30 17:56 | 2026 Apr 30 00:21:36 | 98.0575 | 0.00189 | 9.1250 | 81.9533 | 301.9139 | 14.68565 | 6.743 |
| 2026 Apr 29 17:57 | 2026 Apr 29 12:54:48 | 98.0575 | 0.00190 | 9.0937 | 83.3512 | 301.9139 | 14.68565 | 6.743 |
| 2026 Apr 28 17:56 | 2026 Apr 28 07:28:44 | 98.0577 | 0.00189 | 9.0131 | 86.9737 | 301.9139 | 14.68565 | 6.743 |
| 2026 Apr 27 17:58 | 2026 Apr 27 06:57:00 | 98.0578 | 0.00190 | 8.9460 | 89.9779 | 301.9139 | 14.68565 | 6.743 |
| 2026 Apr 26 17:58 | 2026 Apr 25 18:58:28 | 98.0580 | 0.00190 | 8.8475 | 94.3749 | 301.9139 | 14.68565 | 6.743 |
| 2026 Apr 25 17:58 | 2026 Apr 25 12:26:01 | 98.0580 | 0.00190 | 8.8296 | 95.1591 | 301.9139 | 14.68565 | 6.743 |
| 2026 Apr 24 17:59 | 2026 Apr 24 00:27:28 | 98.0581 | 0.00190 | 8.7311 | 99.5895 | 301.9139 | 14.68565 | 6.743 |
| 2026 Apr 23 17:57 | 2026 Apr 23 01:33:52 | 98.0583 | 0.00189 | 8.6684 | 102.3785 | 301.9139 | 14.68565 | 6.743 |
| 2026 Apr 22 17:57 | 2026 Apr 22 01:02:08 | 98.0584 | 0.00189 | 8.6013 | 105.3546 | 301.9139 | 14.68565 | 6.743 |
| 2026 Apr 21 17:57 | 2026 Apr 21 07:02:51 | 98.0586 | 0.00189 | 8.5520 | 107.5476 | 301.9139 | 14.68565 | 6.743 |
| 2026 Apr 20 17:57 | 2026 Apr 19 23:58:39 | 98.0588 | 0.00189 | 8.4670 | 111.3413 | 301.9139 | 14.68565 | 6.743 |
| 2026 Apr 19 17:58 | 2026 Apr 19 12:31:51 | 98.0588 | 0.00189 | 8.4356 | 112.7331 | 301.9139 | 14.68565 | 6.743 |
| 2026 Apr 18 17:56 | 2026 Apr 18 07:05:46 | 98.0589 | 0.00188 | 8.3550 | 116.3600 | 301.9139 | 14.68565 | 6.743 |
| 2026 Apr 16 17:57 | 2026 Apr 16 01:07:56 | 98.0591 | 0.00188 | 8.2073 | 122.9785 | 301.9139 | 14.68565 | 6.743 |
| 2026 Apr 14 17:57 | 2026 Apr 14 06:36:55 | 98.0592 | 0.00187 | 8.0909 | 128.2386 | 301.9139 | 14.68565 | 6.743 |
| 2026 Apr 13 17:57 | 2026 Apr 13 07:43:17 | 98.0593 | 0.00186 | 8.0282 | 131.0638 | 301.9139 | 14.68565 | 6.743 |
| 2026 Apr 12 17:57 | 2026 Apr 12 12:05:54 | 98.0594 | 0.00186 | 7.9745 | 133.5322 | 301.9139 | 14.68565 | 6.743 |
| 2026 Apr 11 17:57 | 2026 Apr 11 06:39:48 | 98.0595 | 0.00185 | 7.8939 | 137.1776 | 301.9139 | 14.68565 | 6.743 |